Time;durP1;ratioP1;P1;durP2;ratioP2;P2;SDS_P1;SDS_P2;PMS_P1;PMS_P2;Temp;Humidity;BMP_temperature;BMP_pressure;BME280_temperature;BME280_humidity;BME280_pressure;Samples;Min_cycle;Max_cycle;Signal;HPM_P1;HPM_P2
2023/01/23 00:01:58;;;;;;;2.23;2.13;;;3.10;99.90;;;;;;5060869;28;20212;-66
2023/01/23 00:04:25;;;;;;;2.30;2.20;;;3.10;99.90;;;;;;5062291;28;20211;-64
2023/01/23 00:06:53;;;;;;;2.40;2.30;;;3.20;99.90;;;;;;5061655;28;20255;-65
2023/01/23 00:09:20;;;;;;;2.63;2.30;;;3.30;99.90;;;;;;5061140;28;20200;-65
2023/01/23 00:11:47;;;;;;;2.30;2.20;;;3.20;99.90;;;;;;5063252;28;20657;-66
2023/01/23 00:14:13;;;;;;;2.33;2.23;;;3.20;99.90;;;;;;5067321;28;20196;-67
2023/01/23 00:16:42;;;;;;;2.47;2.37;;;3.30;99.90;;;;;;5067548;28;20479;-65
2023/01/23 00:19:10;;;;;;;2.73;2.63;;;3.20;99.90;;;;;;5067022;28;20207;-64
2023/01/23 00:21:37;;;;;;;2.17;2.07;;;3.10;99.90;;;;;;5071745;28;20226;-65
2023/01/23 00:24:04;;;;;;;2.50;2.40;;;3.10;99.90;;;;;;5063782;28;20219;-66
2023/01/23 00:26:32;;;;;;;2.13;2.03;;;3.20;99.90;;;;;;5071891;28;20608;-66
2023/01/23 00:28:59;;;;;;;2.10;2.00;;;3.30;99.90;;;;;;5068702;28;20199;-66
2023/01/23 00:31:29;;;;;;;2.57;2.47;;;3.30;99.90;;;;;;5068041;28;20227;-66
2023/01/23 00:33:59;;;;;;;2.30;2.20;;;3.30;99.90;;;;;;5067925;28;20236;-66
2023/01/23 00:36:29;;;;;;;2.30;2.20;;;3.30;99.90;;;;;;5061784;28;20262;-66
2023/01/23 00:38:56;;;;;;;2.20;2.10;;;3.30;99.90;;;;;;5072550;28;20203;-66
2023/01/23 00:41:23;;;;;;;2.50;2.40;;;3.30;99.90;;;;;;5070234;28;20216;-66
2023/01/23 00:43:51;;;;;;;2.30;2.20;;;3.20;99.90;;;;;;5068152;28;20202;-66
2023/01/23 00:46:19;;;;;;;2.20;2.10;;;3.20;99.90;;;;;;5064640;28;20208;-64
2023/01/23 00:48:46;;;;;;;2.40;2.30;;;3.20;99.90;;;;;;5068728;28;20294;-65
2023/01/23 00:51:14;;;;;;;2.50;2.40;;;3.10;99.90;;;;;;5066196;28;20220;-65
2023/01/23 00:53:41;;;;;;;2.50;2.40;;;3.10;99.90;;;;;;5065164;28;20569;-65
2023/01/23 00:56:08;;;;;;;2.60;2.50;;;3.00;99.90;;;;;;5065882;28;20196;-66
2023/01/23 00:58:35;;;;;;;2.50;2.40;;;3.00;99.90;;;;;;5066697;28;20196;-65
2023/01/23 01:01:02;;;;;;;2.40;2.30;;;2.90;99.90;;;;;;5065259;28;20249;-66
2023/01/23 01:03:29;;;;;;;2.27;2.17;;;2.90;99.90;;;;;;5064628;28;20928;-66
2023/01/23 01:05:56;;;;;;;2.30;2.20;;;2.90;99.90;;;;;;5062608;28;20195;-65
2023/01/23 01:08:24;;;;;;;2.50;2.40;;;2.80;99.90;;;;;;5060188;28;20688;-65
2023/01/23 01:10:51;;;;;;;2.50;2.40;;;2.80;99.90;;;;;;5077444;28;20250;-65
2023/01/23 01:13:20;;;;;;;2.30;2.20;;;2.70;99.90;;;;;;5068790;28;20574;-65
2023/01/23 01:15:47;;;;;;;2.60;2.40;;;2.70;99.90;;;;;;5063134;28;20250;-66
2023/01/23 01:18:15;;;;;;;2.33;2.23;;;2.60;99.90;;;;;;5066143;28;20721;-66
2023/01/23 01:20:42;;;;;;;2.33;2.20;;;2.50;99.90;;;;;;5062387;28;20850;-64
2023/01/23 01:23:10;;;;;;;2.43;2.33;;;2.30;99.90;;;;;;5063985;28;20192;-66
2023/01/23 01:25:38;;;;;;;2.37;2.27;;;2.30;99.90;;;;;;5062570;28;20204;-65
2023/01/23 01:28:05;;;;;;;2.10;2.00;;;2.20;99.90;;;;;;5060359;28;20302;-65
2023/01/23 01:30:32;;;;;;;2.40;2.30;;;2.10;99.90;;;;;;5062698;28;20723;-65
2023/01/23 01:32:59;;;;;;;2.20;2.10;;;2.10;99.90;;;;;;5064195;28;20206;-65
2023/01/23 01:35:26;;;;;;;2.10;2.00;;;2.10;99.90;;;;;;5062190;28;20215;-65
2023/01/23 01:37:53;;;;;;;2.10;2.00;;;2.10;99.90;;;;;;5065067;28;20590;-66
2023/01/23 01:40:23;;;;;;;2.20;2.10;;;2.10;99.90;;;;;;5066624;28;20222;-65
2023/01/23 01:42:57;;;;;;;2.20;2.00;;;2.20;99.90;;;;;;5062586;28;20555;-65
2023/01/23 01:46:12;;;;;;;2.10;2.00;;;2.20;99.90;;;;;;5056137;28;20207;-64
2023/01/23 01:48:45;;;;;;;2.10;2.00;;;2.30;99.90;;;;;;5004726;28;20199;-65
2023/01/23 01:51:18;;;;;;;1.97;1.87;;;2.20;99.90;;;;;;5054615;28;20224;-65
2023/01/23 01:53:49;;;;;;;1.83;1.73;;;2.20;99.90;;;;;;5058363;28;20196;-65
2023/01/23 01:56:17;;;;;;;1.90;1.80;;;2.30;99.90;;;;;;5052402;28;20204;-66
2023/01/23 01:58:49;;;;;;;2.13;2.03;;;2.20;99.90;;;;;;5054371;28;20234;-65
2023/01/23 02:01:16;;;;;;;1.87;1.77;;;2.30;99.90;;;;;;5054459;28;20223;-65
2023/01/23 02:03:44;;;;;;;2.03;1.93;;;2.40;99.90;;;;;;5054578;28;20206;-66
2023/01/23 02:06:12;;;;;;;2.23;2.13;;;2.50;99.90;;;;;;5052830;28;20208;-66
2023/01/23 02:08:47;;;;;;;2.20;2.10;;;2.50;99.90;;;;;;5052915;28;20203;-66
2023/01/23 02:11:15;;;;;;;2.27;2.17;;;2.50;99.90;;;;;;5052735;28;20246;-66
2023/01/23 02:13:44;;;;;;;2.10;2.00;;;2.50;99.90;;;;;;5052725;28;20212;-66
2023/01/23 02:16:16;;;;;;;2.27;2.17;;;2.60;99.90;;;;;;5052574;28;20333;-66
2023/01/23 02:18:46;;;;;;;1.93;1.83;;;2.70;99.90;;;;;;5055586;28;20230;-64
2023/01/23 02:21:15;;;;;;;2.10;2.00;;;2.70;99.90;;;;;;5058531;28;20303;-65
2023/01/23 02:24:03;;;;;;;1.97;1.87;;;2.70;99.90;;;;;;5063145;28;20200;-66
2023/01/23 02:26:35;;;;;;;2.20;2.10;;;2.70;99.90;;;;;;5056423;28;20204;-65
2023/01/23 02:29:03;;;;;;;1.90;1.80;;;2.70;99.90;;;;;;5053888;28;20239;-66
2023/01/23 02:31:29;;;;;;;2.00;1.90;;;2.80;99.90;;;;;;5052870;28;20230;-66
2023/01/23 02:33:58;;;;;;;2.27;2.17;;;2.70;99.90;;;;;;5052780;28;20856;-65
2023/01/23 02:36:29;;;;;;;2.17;2.07;;;2.70;99.90;;;;;;5051729;28;20208;-65
2023/01/23 02:39:04;;;;;;;2.10;2.00;;;2.60;99.90;;;;;;5052769;28;20227;-65
2023/01/23 02:41:54;;;;;;;2.00;1.90;;;2.50;99.90;;;;;;5052346;28;20571;-66
2023/01/23 02:44:26;;;;;;;2.17;2.07;;;2.50;99.90;;;;;;4989761;28;20214;-67
2023/01/23 02:46:53;;;;;;;2.20;2.10;;;2.50;99.90;;;;;;4989918;28;20708;-66
2023/01/23 02:49:20;;;;;;;2.00;1.90;;;2.40;99.90;;;;;;4990298;28;20209;-66
2023/01/23 02:51:48;;;;;;;2.20;2.10;;;2.40;99.90;;;;;;4989740;28;20233;-65
2023/01/23 02:54:15;;;;;;;2.10;2.00;;;2.40;99.90;;;;;;4989135;28;20824;-64
2023/01/23 02:56:43;;;;;;;1.90;1.80;;;2.40;99.90;;;;;;4988657;28;20338;-65
2023/01/23 03:01:56;;;;;;;1.80;1.70;;;2.50;99.90;;;;;;5004798;28;20218;-66
2023/01/23 03:04:23;;;;;;;2.00;1.90;;;2.40;99.90;;;;;;5050755;28;20265;-65
2023/01/23 03:06:49;;;;;;;1.97;1.87;;;2.50;99.90;;;;;;5050233;28;20200;-65
2023/01/23 03:09:17;;;;;;;2.00;1.90;;;2.60;99.90;;;;;;5050735;28;20208;-65
2023/01/23 03:11:47;;;;;;;2.20;2.10;;;2.60;99.90;;;;;;5050261;28;20763;-66
2023/01/23 03:14:17;;;;;;;2.10;2.00;;;2.60;99.90;;;;;;5050997;28;20959;-66
2023/01/23 03:16:48;;;;;;;2.00;1.90;;;2.60;99.90;;;;;;5050169;28;20207;-67
2023/01/23 03:19:15;;;;;;;2.17;2.07;;;2.70;99.90;;;;;;5051261;28;20208;-65
2023/01/23 03:21:42;;;;;;;2.10;2.00;;;2.80;99.90;;;;;;5052492;28;20593;-65
2023/01/23 03:24:11;;;;;;;1.93;1.83;;;2.70;99.90;;;;;;5051158;28;20294;-67
2023/01/23 03:26:39;;;;;;;2.00;1.90;;;2.70;99.90;;;;;;5051323;28;20211;-65
2023/01/23 03:31:52;;;;;;;2.00;1.90;;;2.70;99.90;;;;;;5049908;28;20933;-66
2023/01/23 03:34:21;;;;;;;1.80;1.70;;;2.70;99.90;;;;;;5050641;28;20230;-65
2023/01/23 03:36:48;;;;;;;1.83;1.73;;;2.60;99.90;;;;;;5049783;28;20232;-65
2023/01/23 03:41:59;;;;;;;1.80;1.70;;;2.60;99.90;;;;;;5049697;28;20633;-65
2023/01/23 03:44:27;;;;;;;2.00;1.90;;;2.60;99.90;;;;;;5049800;28;20207;-66
2023/01/23 03:46:54;;;;;;;1.90;1.80;;;2.60;99.90;;;;;;5049486;28;20200;-65
2023/01/23 03:49:21;;;;;;;1.80;1.70;;;2.60;99.90;;;;;;5050284;28;20674;-65
2023/01/23 03:51:48;;;;;;;1.67;1.67;;;2.60;99.90;;;;;;5049970;28;20730;-65
2023/01/23 03:54:15;;;;;;;1.70;1.60;;;2.80;99.90;;;;;;5051148;28;20204;-66
2023/01/23 03:56:42;;;;;;;1.80;1.70;;;2.80;99.90;;;;;;5049704;28;20208;-66
2023/01/23 03:59:08;;;;;;;1.50;1.50;;;2.90;99.90;;;;;;5050690;28;20587;-66
2023/01/23 04:01:37;;;;;;;1.97;1.87;;;2.90;99.90;;;;;;5051715;28;20705;-64
2023/01/23 04:04:04;;;;;;;2.10;2.00;;;3.00;99.90;;;;;;5052675;28;20226;-65
2023/01/23 04:06:31;;;;;;;1.90;1.80;;;2.90;99.90;;;;;;5065530;28;20585;-67
2023/01/23 04:08:58;;;;;;;1.70;1.60;;;2.80;99.90;;;;;;5062917;28;20295;-65
2023/01/23 04:11:26;;;;;;;1.70;1.60;;;2.80;99.90;;;;;;5051345;28;20235;-66
2023/01/23 04:13:54;;;;;;;1.80;1.70;;;2.90;99.90;;;;;;5050943;28;20204;-66
2023/01/23 04:16:21;;;;;;;1.67;1.57;;;2.80;99.90;;;;;;5050096;28;20584;-65
2023/01/23 04:18:50;;;;;;;1.80;1.70;;;2.80;99.90;;;;;;5049960;28;21137;-66
2023/01/23 04:21:17;;;;;;;1.93;1.83;;;2.80;99.90;;;;;;5049638;28;20231;-66
2023/01/23 04:23:43;;;;;;;1.90;1.80;;;2.80;99.90;;;;;;5050102;28;20212;-65
2023/01/23 04:26:10;;;;;;;1.80;1.70;;;2.80;99.90;;;;;;5050119;28;20204;-65
2023/01/23 04:28:37;;;;;;;1.50;1.50;;;2.80;99.90;;;;;;5049966;28;20210;-65
2023/01/23 04:31:04;;;;;;;1.97;1.87;;;2.90;99.90;;;;;;5049955;28;20234;-66
2023/01/23 04:33:31;;;;;;;2.27;2.17;;;2.80;99.90;;;;;;5049192;28;20712;-66
2023/01/23 04:36:01;;;;;;;1.83;1.73;;;2.70;99.90;;;;;;5049489;28;20314;-65
2023/01/23 04:38:29;;;;;;;1.80;1.70;;;2.70;99.90;;;;;;5051438;28;20230;-67
2023/01/23 04:40:56;;;;;;;2.00;1.90;;;2.70;99.90;;;;;;5051131;28;20259;-66
2023/01/23 04:43:24;;;;;;;2.17;2.07;;;2.70;99.90;;;;;;5049738;28;20296;-65
2023/01/23 04:45:52;;;;;;;2.07;1.97;;;2.70;99.90;;;;;;5049603;28;20192;-65
2023/01/23 04:48:18;;;;;;;1.80;1.70;;;2.70;99.90;;;;;;5049428;28;20207;-66
2023/01/23 04:50:45;;;;;;;1.97;1.87;;;2.70;99.90;;;;;;5049461;28;20228;-65
2023/01/23 04:53:13;;;;;;;2.20;2.10;;;2.80;99.90;;;;;;5049260;28;20600;-65
2023/01/23 04:55:41;;;;;;;1.90;1.80;;;2.90;99.90;;;;;;5049034;28;20270;-65
2023/01/23 04:58:10;;;;;;;1.90;1.80;;;2.80;99.90;;;;;;5051020;28;20231;-68
2023/01/23 05:00:37;;;;;;;2.03;1.93;;;2.80;99.90;;;;;;5052758;28;20235;-65
2023/01/23 05:03:03;;;;;;;1.90;1.80;;;2.80;99.90;;;;;;5053253;28;20701;-65
2023/01/23 05:05:31;;;;;;;2.20;2.10;;;2.80;99.90;;;;;;5052772;28;20212;-66
2023/01/23 05:07:57;;;;;;;2.10;2.00;;;2.80;99.90;;;;;;5054203;28;20208;-66
2023/01/23 05:10:26;;;;;;;1.97;1.87;;;2.70;99.90;;;;;;5054730;28;20224;-66
2023/01/23 05:12:52;;;;;;;2.20;2.10;;;2.70;99.90;;;;;;5053439;28;20581;-66
2023/01/23 05:15:20;;;;;;;1.70;1.67;;;2.60;99.90;;;;;;5052977;28;20204;-66
2023/01/23 05:17:47;;;;;;;1.80;1.70;;;2.60;99.90;;;;;;5053802;28;20278;-65
2023/01/23 05:20:14;;;;;;;1.90;1.80;;;2.70;99.90;;;;;;5053276;28;20234;-65
2023/01/23 05:22:50;;;;;;;1.80;1.70;;;2.70;99.90;;;;;;5056571;28;20214;-65
2023/01/23 05:25:18;;;;;;;1.90;1.80;;;2.70;99.90;;;;;;5054891;28;20207;-67
2023/01/23 05:27:46;;;;;;;1.90;1.80;;;2.70;99.90;;;;;;5053092;28;20200;-66
2023/01/23 05:30:13;;;;;;;1.60;1.50;;;2.70;99.90;;;;;;5051951;28;20702;-66
2023/01/23 05:32:40;;;;;;;1.80;1.70;;;2.70;99.90;;;;;;5052480;28;20869;-67
2023/01/23 05:35:08;;;;;;;1.90;1.80;;;2.80;99.90;;;;;;5052345;28;20243;-65
2023/01/23 05:37:35;;;;;;;1.80;1.70;;;2.70;99.90;;;;;;5052710;28;20202;-66
2023/01/23 05:40:02;;;;;;;2.07;1.97;;;2.70;99.90;;;;;;5052126;28;20208;-67
2023/01/23 05:42:29;;;;;;;2.20;2.10;;;2.80;99.90;;;;;;5052497;28;20216;-65
2023/01/23 05:44:57;;;;;;;2.43;2.33;;;2.80;99.90;;;;;;5051961;28;20207;-65
2023/01/23 05:47:24;;;;;;;2.00;1.90;;;2.80;99.90;;;;;;5052340;28;20298;-65
2023/01/23 05:49:50;;;;;;;2.13;2.03;;;2.80;99.90;;;;;;5067328;28;20227;-65
2023/01/23 05:52:17;;;;;;;2.00;1.90;;;2.70;99.90;;;;;;5064586;28;20294;-67
2023/01/23 05:54:44;;;;;;;1.90;1.80;;;2.70;99.90;;;;;;5061442;28;20266;-66
2023/01/23 05:57:11;;;;;;;1.97;1.87;;;2.80;99.90;;;;;;5059550;28;20200;-65
2023/01/23 05:59:38;;;;;;;2.17;2.07;;;2.70;99.90;;;;;;5053825;28;20228;-65
2023/01/23 06:02:06;;;;;;;1.90;1.80;;;2.80;99.90;;;;;;5053214;28;20227;-65
2023/01/23 06:04:33;;;;;;;1.80;1.70;;;2.80;99.90;;;;;;5053107;28;20214;-64
2023/01/23 06:07:00;;;;;;;1.90;1.80;;;2.90;99.90;;;;;;5052465;28;20214;-66
2023/01/23 06:09:27;;;;;;;2.00;1.90;;;2.80;99.90;;;;;;5052380;28;20611;-67
2023/01/23 06:11:53;;;;;;;2.20;2.10;;;2.80;99.90;;;;;;5056234;28;20221;-66
2023/01/23 06:14:20;;;;;;;2.10;2.00;;;2.80;99.90;;;;;;5062812;28;20199;-65
2023/01/23 06:16:47;;;;;;;2.13;2.03;;;2.70;99.90;;;;;;5073871;28;20207;-66
2023/01/23 06:19:15;;;;;;;2.00;1.90;;;2.80;99.90;;;;;;5064514;28;20241;-65
2023/01/23 06:21:42;;;;;;;2.10;2.00;;;2.80;99.90;;;;;;5062680;28;20293;-65
2023/01/23 06:24:09;;;;;;;1.80;1.70;;;2.80;99.90;;;;;;5038047;28;20210;-63
2023/01/23 06:26:36;;;;;;;2.10;2.00;;;2.90;99.90;;;;;;5037180;28;20243;-67
2023/01/23 06:29:03;;;;;;;2.17;2.07;;;2.90;99.90;;;;;;5035040;28;20246;-65
2023/01/23 06:31:31;;;;;;;2.13;2.03;;;3.00;99.90;;;;;;5032760;28;20311;-66
2023/01/23 06:33:58;;;;;;;2.43;2.33;;;3.00;99.90;;;;;;5032957;28;20201;-65
2023/01/23 06:36:26;;;;;;;2.20;2.10;;;2.90;99.90;;;;;;5032664;28;20291;-66
2023/01/23 06:38:53;;;;;;;2.00;1.90;;;3.00;99.90;;;;;;5031988;28;20399;-66
2023/01/23 06:41:20;;;;;;;2.37;2.27;;;3.00;99.90;;;;;;5031540;28;20232;-66
2023/01/23 06:43:47;;;;;;;2.23;2.13;;;3.00;99.90;;;;;;5031086;28;20215;-65
2023/01/23 06:46:14;;;;;;;1.53;1.53;;;3.00;99.90;;;;;;5030359;28;20205;-65
2023/01/23 06:48:41;;;;;;;1.57;1.57;;;3.00;99.90;;;;;;5030809;28;20220;-66
2023/01/23 06:51:08;;;;;;;1.70;1.60;;;3.00;99.90;;;;;;5030213;28;20320;-66
2023/01/23 06:53:37;;;;;;;1.83;1.73;;;3.00;99.90;;;;;;5030258;28;20211;-65
2023/01/23 06:56:05;;;;;;;1.80;1.70;;;3.00;99.90;;;;;;5030497;28;20230;-66
2023/01/23 06:58:33;;;;;;;1.67;1.60;;;3.10;99.90;;;;;;5030525;28;20221;-65
2023/01/23 07:01:07;;;;;;;2.10;2.00;;;3.20;99.90;;;;;;5030351;28;20232;-66
2023/01/23 07:03:34;;;;;;;2.40;2.30;;;3.10;99.90;;;;;;5030743;28;20203;-66
2023/01/23 07:06:02;;;;;;;1.90;1.80;;;3.00;99.90;;;;;;5030591;28;20208;-66
2023/01/23 07:08:29;;;;;;;2.10;2.00;;;3.00;99.90;;;;;;5030808;28;20204;-66
2023/01/23 07:10:57;;;;;;;1.90;1.80;;;3.00;99.90;;;;;;5029921;28;20233;-66
2023/01/23 07:13:24;;;;;;;1.90;1.80;;;2.90;99.90;;;;;;5032076;28;20205;-65
2023/01/23 07:15:51;;;;;;;2.00;1.90;;;3.00;99.90;;;;;;5030171;28;20705;-65
2023/01/23 07:18:18;;;;;;;2.20;2.00;;;3.10;99.90;;;;;;5029768;28;20216;-65
2023/01/23 07:20:45;;;;;;;2.10;2.00;;;3.10;99.90;;;;;;5031210;28;20229;-66
2023/01/23 07:23:12;;;;;;;2.10;2.00;;;3.10;99.90;;;;;;5029922;28;20200;-66
2023/01/23 07:25:39;;;;;;;1.90;1.80;;;3.00;99.90;;;;;;5030835;28;20235;-66
2023/01/23 07:28:07;;;;;;;2.00;1.90;;;3.10;99.90;;;;;;5031033;28;20212;-65
2023/01/23 07:30:34;;;;;;;2.20;2.10;;;3.10;99.90;;;;;;5030428;28;20311;-66
2023/01/23 07:33:01;;;;;;;2.20;2.10;;;3.10;99.90;;;;;;5039965;28;20219;-66
2023/01/23 07:35:28;;;;;;;2.17;2.07;;;3.10;99.90;;;;;;5038595;28;20200;-67
2023/01/23 07:37:55;;;;;;;2.17;2.07;;;3.10;99.90;;;;;;5030393;28;20204;-66
2023/01/23 07:40:22;;;;;;;2.10;2.00;;;3.00;99.90;;;;;;5030152;28;20248;-67
2023/01/23 07:42:49;;;;;;;2.43;2.23;;;3.10;99.90;;;;;;5030178;28;20208;-65
2023/01/23 07:45:17;;;;;;;2.13;2.03;;;3.10;99.90;;;;;;5029773;28;20204;-67
2023/01/23 07:47:44;;;;;;;2.30;2.20;;;3.10;99.90;;;;;;5031496;28;20648;-65
2023/01/23 07:50:12;;;;;;;2.10;2.00;;;3.00;99.90;;;;;;5031919;28;20220;-65
2023/01/23 07:52:39;;;;;;;2.10;2.00;;;3.00;99.90;;;;;;5031557;28;20213;-67
2023/01/23 07:55:07;;;;;;;2.40;2.30;;;3.00;99.90;;;;;;5028860;28;20219;-63
2023/01/23 07:57:34;;;;;;;2.40;2.30;;;3.10;99.90;;;;;;5029773;28;20705;-65
2023/01/23 08:00:00;;;;;;;2.03;1.93;;;3.10;99.90;;;;;;5030056;28;20228;-65
2023/01/23 08:02:28;;;;;;;2.23;2.13;;;3.10;99.90;;;;;;5029970;28;20204;-65
2023/01/23 08:04:55;;;;;;;2.10;2.00;;;3.10;99.90;;;;;;5029473;28;20208;-66
2023/01/23 08:07:22;;;;;;;2.10;2.00;;;3.20;99.90;;;;;;5030173;28;20208;-64
2023/01/23 08:09:49;;;;;;;1.90;1.80;;;3.30;99.90;;;;;;5030088;28;20196;-65
2023/01/23 08:12:16;;;;;;;2.13;2.03;;;3.40;99.90;;;;;;5030565;28;20211;-68
2023/01/23 08:14:43;;;;;;;2.00;1.90;;;3.40;99.90;;;;;;5030424;28;20208;-66
2023/01/23 08:17:09;;;;;;;1.90;1.80;;;3.30;99.90;;;;;;5029784;28;20208;-66
2023/01/23 08:19:37;;;;;;;2.20;2.10;;;3.20;99.90;;;;;;5030614;28;20224;-66
2023/01/23 08:22:04;;;;;;;2.00;1.90;;;3.20;99.90;;;;;;5031878;28;20229;-65
2023/01/23 08:24:31;;;;;;;2.17;2.07;;;3.30;99.90;;;;;;5046692;28;20208;-65
2023/01/23 08:26:58;;;;;;;2.20;2.10;;;3.40;99.90;;;;;;5046895;28;20213;-69
2023/01/23 08:29:25;;;;;;;2.00;1.90;;;3.40;99.90;;;;;;5046921;28;20264;-64
2023/01/23 08:31:53;;;;;;;2.10;2.00;;;3.50;99.90;;;;;;5048669;28;20259;-66
2023/01/23 08:34:20;;;;;;;1.90;1.80;;;3.50;99.90;;;;;;5051485;28;20251;-65
2023/01/23 08:36:48;;;;;;;2.20;2.10;;;3.50;99.90;;;;;;5048211;28;20231;-64
2023/01/23 08:39:16;;;;;;;2.23;2.13;;;3.50;99.90;;;;;;5050504;28;20248;-66
2023/01/23 08:41:43;;;;;;;2.20;2.10;;;3.50;99.90;;;;;;5037391;28;20707;-67
2023/01/23 08:44:10;;;;;;;2.00;1.90;;;3.60;99.90;;;;;;5033882;28;20201;-66
2023/01/23 08:46:37;;;;;;;2.00;1.90;;;3.60;99.90;;;;;;5033183;28;20224;-64
2023/01/23 08:49:04;;;;;;;2.10;2.00;;;3.60;99.90;;;;;;5033427;28;20282;-65
2023/01/23 08:51:31;;;;;;;2.20;2.10;;;3.40;99.90;;;;;;5033435;28;20232;-65
2023/01/23 08:53:59;;;;;;;2.03;1.93;;;3.30;99.90;;;;;;5033136;28;20589;-66
2023/01/23 08:56:26;;;;;;;2.90;2.20;;;3.40;99.90;;;;;;5032659;28;20219;-67
2023/01/23 08:58:53;;;;;;;2.07;1.97;;;3.50;99.90;;;;;;5033581;28;20224;-64
2023/01/23 09:01:22;;;;;;;2.30;2.20;;;3.50;99.90;;;;;;5041714;28;20224;-67
2023/01/23 09:03:49;;;;;;;2.40;2.30;;;3.50;99.90;;;;;;5053559;28;20295;-66
2023/01/23 09:06:18;;;;;;;2.20;2.10;;;3.50;99.90;;;;;;5058462;28;20612;-65
2023/01/23 09:08:45;;;;;;;1.77;1.67;;;3.60;99.90;;;;;;5053636;28;20210;-65
2023/01/23 09:11:14;;;;;;;2.13;2.00;;;3.80;99.90;;;;;;5056181;28;20599;-65
2023/01/23 09:13:42;;;;;;;2.03;1.93;;;3.80;99.90;;;;;;5052652;28;20212;-65
2023/01/23 09:16:09;;;;;;;2.30;2.20;;;3.70;99.90;;;;;;5068630;28;20282;-67
2023/01/23 09:18:36;;;;;;;2.30;2.20;;;3.70;99.90;;;;;;5087413;28;20279;-66
2023/01/23 09:21:07;;;;;;;2.30;2.20;;;3.70;99.90;;;;;;5071636;28;20214;-65
2023/01/23 09:23:33;;;;;;;2.27;2.17;;;3.70;99.90;;;;;;5074378;28;20199;-66
2023/01/23 09:26:03;;;;;;;2.67;2.57;;;3.70;99.90;;;;;;5070277;28;20204;-66
2023/01/23 09:28:31;;;;;;;2.37;2.27;;;3.60;99.90;;;;;;5053888;28;20200;-66
2023/01/23 09:31:02;;;;;;;2.53;2.43;;;3.60;99.90;;;;;;5052983;28;20232;-64
2023/01/23 09:33:29;;;;;;;2.37;2.27;;;3.70;99.90;;;;;;5056087;28;20211;-67
2023/01/23 09:35:56;;;;;;;2.40;2.30;;;3.70;99.90;;;;;;5054190;28;20211;-67
2023/01/23 09:38:23;;;;;;;2.57;2.40;;;3.70;99.90;;;;;;5055773;28;20224;-65
2023/01/23 09:40:51;;;;;;;2.30;2.20;;;3.60;99.90;;;;;;5052481;28;20603;-66
2023/01/23 09:43:24;;;;;;;2.30;2.20;;;3.50;99.90;;;;;;5055251;28;20200;-68
2023/01/23 09:46:01;;;;;;;2.40;2.30;;;3.50;99.90;;;;;;5051238;28;20219;-65
2023/01/23 09:48:31;;;;;;;2.20;2.10;;;3.40;99.90;;;;;;5052489;28;20217;-65
2023/01/23 09:51:04;;;;;;;2.67;2.50;;;3.50;99.90;;;;;;5051477;28;20216;-64
2023/01/23 09:53:35;;;;;;;2.33;2.23;;;3.60;99.90;;;;;;5051867;28;20204;-65
2023/01/23 09:56:11;;;;;;;2.90;2.70;;;3.60;99.90;;;;;;5051519;28;20208;-66
2023/01/23 09:58:44;;;;;;;2.40;2.30;;;3.70;99.90;;;;;;5051832;28;20207;-66
2023/01/23 10:01:13;;;;;;;2.50;2.40;;;3.80;99.90;;;;;;5051460;28;20232;-65
2023/01/23 10:03:40;;;;;;;2.30;2.20;;;3.60;99.90;;;;;;5055361;28;20246;-65
2023/01/23 10:06:21;;;;;;;2.93;2.73;;;3.60;99.90;;;;;;5053923;28;20279;-66
2023/01/23 10:09:11;;;;;;;2.40;2.30;;;3.60;99.90;;;;;;5051395;28;20207;-66
2023/01/23 10:11:49;;;;;;;2.60;2.50;;;3.70;99.90;;;;;;5051949;28;20642;-66
2023/01/23 10:14:39;;;;;;;2.53;2.43;;;3.80;99.90;;;;;;5052959;28;20999;-66
2023/01/23 10:17:14;;;;;;;2.40;2.30;;;3.70;99.90;;;;;;5052610;28;20558;-66
2023/01/23 10:19:54;;;;;;;2.67;2.57;;;3.80;99.90;;;;;;5053128;28;20595;-71
2023/01/23 10:22:33;;;;;;;2.90;2.77;;;3.70;99.90;;;;;;5068218;28;20203;-66
2023/01/23 10:25:03;;;;;;;3.00;2.80;;;3.70;99.90;;;;;;5072413;28;20203;-65
2023/01/23 10:27:37;;;;;;;2.80;2.70;;;3.70;99.90;;;;;;5072581;28;20480;-65
2023/01/23 10:30:14;;;;;;;2.83;2.73;;;3.70;99.90;;;;;;5072648;28;20221;-66
2023/01/23 10:32:48;;;;;;;2.73;2.60;;;3.70;99.90;;;;;;5072233;28;20207;-67
2023/01/23 10:35:19;;;;;;;2.70;2.60;;;3.70;99.90;;;;;;5070577;28;20214;-65
2023/01/23 10:37:52;;;;;;;2.70;2.60;;;3.60;99.90;;;;;;5058405;28;20204;-64
2023/01/23 10:41:12;;;;;;;2.27;2.17;;;3.60;99.90;;;;;;5051138;28;20232;-66
2023/01/23 10:43:13;;;;;;;2.10;2.00;;;3.60;99.90;;;;;;5050768;28;20199;-66
2023/01/23 10:45:41;;;;;;;2.50;2.40;;;3.80;99.90;;;;;;5051036;28;20286;-67
2023/01/23 10:48:28;;;;;;;2.40;2.30;;;3.80;99.90;;;;;;5050972;28;20675;-64
2023/01/23 10:50:55;;;;;;;1.90;1.80;;;3.70;99.90;;;;;;5050843;28;20230;-65
2023/01/23 10:53:23;;;;;;;1.80;1.70;;;3.80;99.90;;;;;;5055481;28;20208;-66
2023/01/23 10:55:51;;;;;;;2.80;1.77;;;4.00;99.90;;;;;;5059296;28;20239;-65
2023/01/23 10:58:31;;;;;;;1.40;1.40;;;4.20;99.90;;;;;;5050653;28;20208;-66
2023/01/23 11:01:00;;;;;;;1.70;1.60;;;4.40;99.90;;;;;;5055504;28;20231;-65
2023/01/23 11:03:31;;;;;;;1.47;1.43;;;4.60;99.90;;;;;;5064507;28;20626;-67
2023/01/23 11:06:03;;;;;;;1.20;1.20;;;4.70;99.90;;;;;;5052005;28;20200;-66
2023/01/23 11:08:32;;;;;;;1.50;1.40;;;4.90;99.90;;;;;;5052328;28;20207;-66
2023/01/23 11:11:21;;;;;;;1.40;1.40;;;5.00;99.90;;;;;;5061866;28;20211;-67
2023/01/23 11:13:50;;;;;;;1.50;1.40;;;5.10;99.90;;;;;;5060008;28;20245;-64
2023/01/23 11:16:19;;;;;;;1.80;1.70;;;5.00;99.90;;;;;;5055643;28;20203;-67
2023/01/23 11:18:52;;;;;;;1.83;1.73;;;5.10;99.90;;;;;;5063286;28;20802;-65
2023/01/23 11:21:26;;;;;;;1.40;1.40;;;5.00;99.90;;;;;;5064614;28;20677;-65
2023/01/23 11:24:09;;;;;;;1.73;1.63;;;5.00;99.90;;;;;;5059557;28;20199;-65
2023/01/23 11:26:37;;;;;;;1.30;1.30;;;5.00;99.90;;;;;;5061157;28;20208;-65
2023/01/23 11:29:21;;;;;;;1.40;1.30;;;4.90;99.90;;;;;;5058803;28;20671;-65
2023/01/23 11:31:50;;;;;;;1.33;1.33;;;4.90;99.90;;;;;;5060832;28;20214;-67
2023/01/23 11:34:21;;;;;;;2.80;1.30;;;5.20;99.90;;;;;;5060998;28;20684;-66
2023/01/23 11:36:54;;;;;;;1.30;1.30;;;5.20;99.90;;;;;;5059516;28;20198;-64
2023/01/23 11:39:33;;;;;;;1.40;1.40;;;5.30;99.90;;;;;;5056701;28;20290;-67
2023/01/23 11:42:01;;;;;;;1.60;1.50;;;5.40;99.90;;;;;;5056543;28;20595;-64
2023/01/23 11:44:29;;;;;;;1.20;1.20;;;5.50;99.90;;;;;;5059991;28;20227;-66
2023/01/23 11:47:24;;;;;;;1.37;1.30;;;5.40;99.90;;;;;;5062372;28;20206;-66
2023/01/23 11:50:06;;;;;;;1.30;1.30;;;5.20;99.90;;;;;;5060615;28;20196;-66
2023/01/23 11:52:45;;;;;;;1.40;1.40;;;5.20;99.90;;;;;;5061823;28;20203;-67
2023/01/23 11:55:52;;;;;;;1.40;1.40;;;5.30;99.90;;;;;;5058755;28;20196;-66
2023/01/23 11:58:35;;;;;;;1.20;1.20;;;5.30;99.90;;;;;;5056361;28;20199;-66
2023/01/23 12:01:10;;;;;;;1.50;1.47;;;5.40;99.90;;;;;;5069005;28;20219;-65
2023/01/23 12:04:01;;;;;;;1.20;1.20;;;5.40;99.90;;;;;;5067394;28;20257;-67
2023/01/23 12:06:39;;;;;;;1.60;1.40;;;5.50;99.90;;;;;;5062885;28;20206;-65
2023/01/23 12:09:12;;;;;;;1.57;1.53;;;5.50;99.90;;;;;;5070435;28;20200;-65
2023/01/23 12:11:50;;;;;;;1.73;1.63;;;5.60;99.90;;;;;;5077343;28;20211;-69
2023/01/23 12:14:24;;;;;;;1.10;1.10;;;5.70;99.90;;;;;;5068514;28;20199;-65
2023/01/23 12:17:07;;;;;;;1.10;1.10;;;5.90;99.90;;;;;;5066638;28;20196;-65
2023/01/23 12:20:03;;;;;;;1.20;1.20;;;5.80;99.90;;;;;;5064863;28;20203;-65
2023/01/23 12:22:41;;;;;;;1.73;1.33;;;5.70;99.90;;;;;;5061494;28;20196;-66
2023/01/23 12:25:22;;;;;;;1.23;1.23;;;5.60;99.90;;;;;;5065471;28;20259;-65
2023/01/23 12:27:56;;;;;;;1.43;1.33;;;5.70;99.90;;;;;;5067326;28;20196;-64
2023/01/23 12:31:11;;;;;;;1.30;1.30;;;5.60;99.90;;;;;;5049308;28;20224;-65
2023/01/23 12:33:59;;;;;;;1.20;1.20;;;5.70;99.90;;;;;;4994762;28;20211;-66
2023/01/23 12:36:42;;;;;;;1.30;1.30;;;5.60;99.90;;;;;;5001797;28;20212;-66
2023/01/23 12:39:38;;;;;;;1.30;1.30;;;5.60;99.90;;;;;;4991921;28;20198;-66
2023/01/23 12:42:09;;;;;;;1.40;1.40;;;5.70;99.90;;;;;;4993175;28;20661;-66
2023/01/23 12:44:41;;;;;;;1.60;1.50;;;5.80;99.90;;;;;;5007726;28;20194;-65
2023/01/23 12:47:13;;;;;;;1.43;1.40;;;5.90;99.90;;;;;;4997950;28;20379;-64
2023/01/23 12:49:44;;;;;;;1.20;1.20;;;6.10;99.90;;;;;;5001162;28;20202;-65
2023/01/23 12:52:15;;;;;;;1.30;1.30;;;6.10;99.90;;;;;;5007850;28;20217;-64
2023/01/23 12:54:49;;;;;;;1.53;1.43;;;6.00;99.90;;;;;;5006166;28;20190;-65
2023/01/23 12:57:38;;;;;;;1.80;1.70;;;6.10;99.90;;;;;;4994083;28;20205;-65
2023/01/23 13:00:10;;;;;;;1.93;1.47;;;6.00;99.90;;;;;;4992119;28;20810;-66
2023/01/23 13:02:44;;;;;;;1.30;1.30;;;6.00;99.90;;;;;;4994223;28;20198;-66
2023/01/23 13:05:19;;;;;;;1.90;1.80;;;6.00;99.90;;;;;;5035608;28;20292;-65
2023/01/23 13:07:55;;;;;;;1.70;1.60;;;6.10;99.90;;;;;;5045026;28;20198;-67
2023/01/23 13:13:22;;;;;;;1.10;1.10;;;6.00;99.90;;;;;;5047493;28;20212;-64
2023/01/23 13:16:10;;;;;;;1.30;1.30;;;5.90;99.90;;;;;;5049673;28;20200;-66
2023/01/23 13:27:40;;;;;;;2.10;2.00;;;6.20;99.90;;;;;;5032934;28;20207;-65
2023/01/23 13:30:40;;;;;;;2.17;2.07;;;6.00;99.90;;;;;;5041190;28;20208;-67
2023/01/23 13:33:52;;;;;;;2.67;2.47;;;5.70;99.90;;;;;;5062724;28;20290;-66
2023/01/23 13:36:37;;;;;;;2.50;2.40;;;5.70;99.90;;;;;;5060464;28;20206;-66